Time;durP1;ratioP1;P1;durP2;ratioP2;P2;SDS_P1;SDS_P2;PMS_P1;PMS_P2;Temp;Humidity;BMP_temperature;BMP_pressure;BME280_temperature;BME280_humidity;BME280_pressure;Samples;Min_cycle;Max_cycle;Signal;HPM_P1;HPM_P2
2020/12/06 00:02:01;;;;;;;22.17;15.30;;;4.50;99.90;;;;;;5032792;28;20508;-73
2020/12/06 00:04:27;;;;;;;23.60;16.07;;;4.50;99.90;;;;;;5032873;28;20192;-73
2020/12/06 00:06:53;;;;;;;22.17;15.20;;;4.50;99.90;;;;;;5032679;28;20538;-74
2020/12/06 00:09:18;;;;;;;22.00;14.97;;;4.50;99.90;;;;;;5031808;28;20442;-74
2020/12/06 00:11:44;;;;;;;23.10;15.97;;;4.50;99.90;;;;;;5032745;28;20167;-74
2020/12/06 00:14:09;;;;;;;19.97;16.30;;;4.50;99.90;;;;;;5032637;28;20585;-73
2020/12/06 00:16:35;;;;;;;25.93;16.17;;;4.40;99.90;;;;;;5032546;28;20218;-73
2020/12/06 00:19:00;;;;;;;26.17;16.30;;;4.30;99.90;;;;;;5032504;28;20227;-73
2020/12/06 00:21:26;;;;;;;23.97;17.90;;;4.30;99.90;;;;;;5032434;28;20179;-71
2020/12/06 00:23:51;;;;;;;20.40;15.70;;;4.30;99.90;;;;;;5032483;28;20198;-72
2020/12/06 00:26:22;;;;;;;21.43;15.53;;;4.20;99.90;;;;;;5032278;28;20179;-72
2020/12/06 00:28:49;;;;;;;23.80;16.70;;;4.20;99.90;;;;;;5032115;28;20253;-72
2020/12/06 00:31:14;;;;;;;25.90;17.27;;;4.10;99.90;;;;;;5032285;28;20413;-75
2020/12/06 00:33:40;;;;;;;25.13;17.70;;;4.10;99.90;;;;;;5032120;28;20806;-73
2020/12/06 00:36:08;;;;;;;22.80;16.70;;;4.10;99.90;;;;;;5032432;28;20747;-72
2020/12/06 00:38:33;;;;;;;27.00;17.33;;;4.10;99.90;;;;;;5032063;28;20422;-73
2020/12/06 00:40:59;;;;;;;28.73;19.13;;;4.10;99.90;;;;;;5032158;28;20756;-73
2020/12/06 00:43:24;;;;;;;23.77;18.47;;;4.00;99.90;;;;;;5031950;28;20168;-73
2020/12/06 00:45:49;;;;;;;22.13;16.00;;;4.00;99.90;;;;;;5032170;28;20175;-74
2020/12/06 00:48:15;;;;;;;26.57;17.53;;;4.00;99.90;;;;;;5032067;28;20190;-73
2020/12/06 00:50:40;;;;;;;26.97;18.37;;;4.00;99.90;;;;;;5032061;28;20270;-74
2020/12/06 00:53:06;;;;;;;32.27;18.80;;;4.00;99.90;;;;;;5032166;28;20251;-74
2020/12/06 00:55:31;;;;;;;24.00;18.10;;;4.00;99.90;;;;;;5031901;28;20187;-74
2020/12/06 00:57:57;;;;;;;24.97;17.27;;;4.10;99.90;;;;;;5031774;28;20176;-73
2020/12/06 01:00:22;;;;;;;28.83;19.43;;;4.10;99.90;;;;;;5031816;28;20631;-73
2020/12/06 01:02:48;;;;;;;30.47;19.33;;;4.10;99.90;;;;;;5031920;28;20172;-74
2020/12/06 01:05:13;;;;;;;30.90;19.00;;;4.10;99.90;;;;;;5031835;28;20682;-74
2020/12/06 01:07:39;;;;;;;26.83;19.90;;;4.10;99.90;;;;;;5031650;28;20168;-73
2020/12/06 01:10:07;;;;;;;35.93;21.93;;;4.20;99.90;;;;;;5031715;28;20697;-73
2020/12/06 01:12:32;;;;;;;33.43;20.77;;;4.20;99.90;;;;;;5031977;28;20394;-76
2020/12/06 01:14:58;;;;;;;28.87;20.77;;;4.30;99.90;;;;;;5032508;28;20778;-74
2020/12/06 01:17:24;;;;;;;32.33;20.90;;;4.40;99.90;;;;;;5032711;28;20489;-76
2020/12/06 01:19:49;;;;;;;33.17;22.23;;;4.40;99.90;;;;;;5033638;28;20257;-76
2020/12/06 01:22:15;;;;;;;35.33;24.37;;;4.50;99.90;;;;;;5036553;28;20545;-75
2020/12/06 01:24:40;;;;;;;34.60;22.60;;;4.50;99.90;;;;;;5035547;28;20746;-74
2020/12/06 01:27:05;;;;;;;41.97;25.87;;;4.60;99.90;;;;;;5035841;28;20270;-74
2020/12/06 01:29:31;;;;;;;38.53;24.50;;;4.60;99.90;;;;;;5035815;28;20667;-74
2020/12/06 01:31:56;;;;;;;35.60;22.80;;;4.70;99.90;;;;;;5035651;28;20538;-74
2020/12/06 01:34:22;;;;;;;31.27;23.77;;;4.80;99.90;;;;;;5035406;28;20191;-74
2020/12/06 01:36:50;;;;;;;38.30;23.10;;;4.90;99.90;;;;;;5035566;28;20164;-73
2020/12/06 01:39:15;;;;;;;31.23;22.10;;;4.90;99.90;;;;;;5035492;28;20676;-74
2020/12/06 01:41:41;;;;;;;38.13;23.83;;;5.10;99.90;;;;;;5035445;28;20524;-74
2020/12/06 01:44:06;;;;;;;33.53;23.37;;;5.10;99.90;;;;;;5035964;28;20176;-75
2020/12/06 01:46:36;;;;;;;34.47;23.20;;;5.20;99.90;;;;;;5036257;28;20167;-74
2020/12/06 01:49:03;;;;;;;35.97;23.37;;;5.40;99.90;;;;;;5035302;28;20253;-74
2020/12/06 01:51:29;;;;;;;28.30;21.53;;;5.40;99.90;;;;;;5035593;28;20403;-74
2020/12/06 01:53:54;;;;;;;40.77;23.43;;;5.50;99.90;;;;;;5035264;28;20810;-74
2020/12/06 01:56:20;;;;;;;33.27;21.90;;;5.60;99.90;;;;;;5035188;28;20186;-74
2020/12/06 01:58:45;;;;;;;33.20;23.13;;;5.60;99.90;;;;;;5035251;28;20253;-74
2020/12/06 02:01:12;;;;;;;30.93;21.90;;;5.70;99.90;;;;;;5036073;28;20171;-76
2020/12/06 02:03:38;;;;;;;34.53;22.77;;;5.70;99.90;;;;;;5036347;28;20661;-75
2020/12/06 02:06:04;;;;;;;30.47;21.20;;;5.70;99.90;;;;;;5035176;28;20773;-74
2020/12/06 02:08:30;;;;;;;34.20;22.10;;;5.80;99.90;;;;;;5034784;28;20446;-74
2020/12/06 02:10:55;;;;;;;25.13;19.40;;;5.80;99.90;;;;;;5033403;28;20418;-75
2020/12/06 02:13:21;;;;;;;32.33;23.23;;;5.90;99.90;;;;;;5034827;28;20244;-73
2020/12/06 02:15:47;;;;;;;34.00;22.70;;;5.90;99.90;;;;;;5034852;28;20171;-73
2020/12/06 02:18:13;;;;;;;35.17;22.07;;;5.90;99.90;;;;;;5035242;28;20501;-72
2020/12/06 02:20:38;;;;;;;27.27;19.97;;;5.90;99.90;;;;;;5034503;28;20167;-73
2020/12/06 02:23:05;;;;;;;32.80;21.73;;;5.90;99.90;;;;;;5034665;28;20440;-73
2020/12/06 02:25:36;;;;;;;32.43;20.30;;;5.90;99.90;;;;;;5034564;28;20183;-75
2020/12/06 02:28:03;;;;;;;29.03;21.30;;;5.80;99.90;;;;;;5035062;28;20497;-74
2020/12/06 02:30:29;;;;;;;31.60;19.40;;;5.80;99.90;;;;;;5035163;28;20410;-75
2020/12/06 02:32:54;;;;;;;30.40;21.70;;;5.80;99.90;;;;;;5034186;28;20411;-75
2020/12/06 02:35:20;;;;;;;32.70;22.80;;;5.80;99.90;;;;;;5034909;28;20564;-75
2020/12/06 02:37:45;;;;;;;25.53;20.10;;;5.70;99.90;;;;;;5035204;28;20168;-75
2020/12/06 02:40:11;;;;;;;33.70;22.80;;;5.70;99.90;;;;;;5034909;28;20194;-75
2020/12/06 02:42:36;;;;;;;32.27;19.53;;;5.70;99.90;;;;;;5034953;28;20175;-75
2020/12/06 02:45:03;;;;;;;34.63;21.47;;;5.70;99.90;;;;;;5034947;28;20652;-75
2020/12/06 02:47:28;;;;;;;29.03;18.87;;;5.80;99.90;;;;;;5034608;28;20209;-73
2020/12/06 02:49:54;;;;;;;27.10;19.67;;;5.70;99.90;;;;;;5035222;28;20438;-75
2020/12/06 02:52:19;;;;;;;33.53;20.87;;;5.70;99.90;;;;;;5034620;28;20175;-75
2020/12/06 02:54:45;;;;;;;27.33;18.80;;;5.70;99.90;;;;;;5034269;28;20207;-74
2020/12/06 02:57:10;;;;;;;31.37;20.07;;;5.70;99.90;;;;;;5033431;28;20164;-74
2020/12/06 02:59:36;;;;;;;29.50;19.63;;;5.70;99.90;;;;;;5034844;28;20551;-74
2020/12/06 03:02:01;;;;;;;34.07;22.00;;;5.60;99.90;;;;;;5035359;28;20163;-74
2020/12/06 03:04:26;;;;;;;27.30;18.33;;;5.70;99.90;;;;;;5035283;28;20175;-74
2020/12/06 03:06:52;;;;;;;30.30;21.70;;;5.60;99.90;;;;;;5033899;28;20175;-73
2020/12/06 03:09:17;;;;;;;27.70;19.80;;;5.60;99.90;;;;;;5033749;28;20250;-74
2020/12/06 03:11:43;;;;;;;29.30;19.77;;;5.60;99.90;;;;;;5034033;28;20179;-73
2020/12/06 03:14:08;;;;;;;29.57;20.27;;;5.50;99.90;;;;;;5033800;28;20651;-73
2020/12/06 03:16:34;;;;;;;24.80;17.97;;;5.50;99.90;;;;;;5033624;28;20171;-74
2020/12/06 03:18:59;;;;;;;31.70;21.17;;;5.50;99.90;;;;;;5033574;28;20191;-74
2020/12/06 03:21:25;;;;;;;31.17;19.33;;;5.50;99.90;;;;;;5033820;28;20170;-73
2020/12/06 03:23:50;;;;;;;30.17;20.43;;;5.60;99.90;;;;;;5033657;28;20358;-73
2020/12/06 03:26:15;;;;;;;28.10;19.90;;;5.50;99.90;;;;;;5033523;28;20172;-74
2020/12/06 03:28:41;;;;;;;28.30;19.90;;;5.50;99.90;;;;;;5033353;28;20280;-74
2020/12/06 03:31:06;;;;;;;25.17;18.47;;;5.50;99.90;;;;;;5033443;28;20543;-74
2020/12/06 03:33:32;;;;;;;26.87;18.03;;;5.50;99.90;;;;;;5034156;28;20319;-74
2020/12/06 03:35:57;;;;;;;29.53;19.00;;;5.60;99.90;;;;;;5033381;28;20364;-73
2020/12/06 03:38:23;;;;;;;23.30;18.07;;;5.60;99.90;;;;;;5033944;28;20194;-74
2020/12/06 03:40:48;;;;;;;26.10;18.87;;;5.70;99.90;;;;;;5034089;28;20179;-73
2020/12/06 03:43:13;;;;;;;29.00;18.00;;;5.70;99.90;;;;;;5032618;28;20180;-74
2020/12/06 03:45:39;;;;;;;21.43;17.10;;;5.70;99.90;;;;;;5033908;28;20179;-73
2020/12/06 03:48:04;;;;;;;28.40;18.30;;;5.80;99.90;;;;;;5032832;28;20687;-72
2020/12/06 03:50:30;;;;;;;22.33;17.67;;;5.80;99.90;;;;;;5033140;28;20535;-73
2020/12/06 03:52:55;;;;;;;28.80;17.57;;;5.90;99.90;;;;;;5033008;28;20171;-73
2020/12/06 03:55:21;;;;;;;26.83;17.53;;;5.90;99.90;;;;;;5033158;28;20579;-73
2020/12/06 03:57:46;;;;;;;29.87;17.57;;;5.90;99.90;;;;;;5033299;28;20168;-74
2020/12/06 04:00:12;;;;;;;26.73;17.33;;;5.90;99.90;;;;;;5033011;28;20561;-72
2020/12/06 04:02:37;;;;;;;23.67;16.90;;;5.90;99.90;;;;;;5032769;28;20179;-72
2020/12/06 04:05:03;;;;;;;26.43;16.20;;;5.90;99.90;;;;;;5032799;28;20593;-71
2020/12/06 04:07:29;;;;;;;28.70;18.80;;;5.90;99.90;;;;;;5032648;28;20172;-72
2020/12/06 04:09:55;;;;;;;24.10;17.83;;;5.90;99.90;;;;;;5032527;28;20969;-73
2020/12/06 04:12:20;;;;;;;21.40;16.80;;;5.90;99.90;;;;;;5033420;28;20238;-74
2020/12/06 04:14:45;;;;;;;26.10;17.53;;;5.90;99.90;;;;;;5033670;28;20203;-74
2020/12/06 04:17:11;;;;;;;21.40;15.60;;;5.90;99.90;;;;;;5033462;28;20183;-74
2020/12/06 04:19:36;;;;;;;22.43;17.30;;;5.90;99.90;;;;;;5033310;28;20227;-74
2020/12/06 04:22:06;;;;;;;28.97;18.30;;;5.90;99.90;;;;;;5033642;28;20214;-73
2020/12/06 04:24:32;;;;;;;26.13;17.83;;;5.90;99.90;;;;;;5032331;28;20251;-73
2020/12/06 04:26:58;;;;;;;26.27;16.60;;;5.90;99.90;;;;;;5032278;28;20418;-73
2020/12/06 04:29:23;;;;;;;24.97;17.17;;;5.90;99.90;;;;;;5032279;28;20509;-73
2020/12/06 04:31:49;;;;;;;28.40;17.30;;;5.90;99.90;;;;;;5032726;28;20172;-74
2020/12/06 04:34:14;;;;;;;26.17;18.90;;;5.90;99.90;;;;;;5032660;28;20707;-74
2020/12/06 04:36:39;;;;;;;27.60;17.03;;;5.90;99.90;;;;;;5032762;28;20193;-74
2020/12/06 04:39:05;;;;;;;23.70;18.07;;;5.90;99.90;;;;;;5033203;28;20274;-74
2020/12/06 04:41:30;;;;;;;27.20;18.40;;;5.90;99.90;;;;;;5032096;28;20183;-73
2020/12/06 04:43:56;;;;;;;27.97;16.97;;;5.90;99.90;;;;;;5032032;28;20176;-73
2020/12/06 04:46:24;;;;;;;26.23;18.03;;;5.90;99.90;;;;;;5031816;28;20167;-73
2020/12/06 04:49:03;;;;;;;25.47;16.97;;;5.90;99.90;;;;;;5032112;28;20281;-73
2020/12/06 04:51:32;;;;;;;29.00;19.30;;;5.90;99.90;;;;;;5032419;28;20437;-73
2020/12/06 04:54:02;;;;;;;24.23;17.40;;;5.90;99.90;;;;;;5031861;28;20460;-73
2020/12/06 04:56:29;;;;;;;26.47;18.63;;;6.00;99.90;;;;;;5031652;28;20428;-73
2020/12/06 04:58:58;;;;;;;26.47;18.70;;;6.00;99.90;;;;;;5032159;28;20823;-73
2020/12/06 05:01:28;;;;;;;22.60;15.80;;;6.00;99.90;;;;;;5031925;28;20402;-73
2020/12/06 05:03:58;;;;;;;26.37;18.83;;;6.00;99.90;;;;;;5032054;28;20405;-73
2020/12/06 05:06:28;;;;;;;23.87;16.70;;;6.00;99.90;;;;;;5031711;28;20493;-73
2020/12/06 05:08:56;;;;;;;27.90;17.27;;;6.10;99.90;;;;;;5031548;28;20450;-72
2020/12/06 05:11:22;;;;;;;29.37;20.57;;;6.10;99.90;;;;;;5031637;28;20411;-73
2020/12/06 05:13:47;;;;;;;24.13;17.70;;;6.10;99.90;;;;;;5031605;28;20794;-72
2020/12/06 05:16:14;;;;;;;23.67;16.60;;;6.10;99.90;;;;;;5031755;28;20174;-74
2020/12/06 05:18:40;;;;;;;25.33;16.63;;;6.10;99.90;;;;;;5032759;28;20183;-74
2020/12/06 05:21:05;;;;;;;22.40;15.97;;;6.10;99.90;;;;;;5032643;28;20410;-74
2020/12/06 05:23:31;;;;;;;28.90;17.97;;;6.10;99.90;;;;;;5033214;28;20168;-73
2020/12/06 05:25:57;;;;;;;25.23;17.63;;;6.10;99.90;;;;;;5032697;28;20175;-73
2020/12/06 05:28:24;;;;;;;22.17;15.43;;;6.10;99.90;;;;;;5032096;28;20221;-73
2020/12/06 05:30:49;;;;;;;25.37;17.60;;;6.10;99.90;;;;;;5031871;28;20410;-74
2020/12/06 05:33:18;;;;;;;25.57;17.80;;;6.20;99.90;;;;;;5031567;28;20450;-74
2020/12/06 05:35:44;;;;;;;27.10;16.80;;;6.10;99.90;;;;;;5031633;28;20171;-73
2020/12/06 05:38:09;;;;;;;25.70;16.37;;;6.10;99.90;;;;;;5031552;28;20426;-74
2020/12/06 05:40:44;;;;;;;22.20;15.80;;;6.20;99.90;;;;;;5031453;28;20172;-72
2020/12/06 05:43:10;;;;;;;24.87;18.67;;;6.10;99.90;;;;;;5031579;28;20162;-72
2020/12/06 05:45:35;;;;;;;27.40;17.50;;;6.10;99.90;;;;;;5031580;28;20406;-72
2020/12/06 05:48:05;;;;;;;28.90;17.30;;;6.20;99.90;;;;;;5031405;28;20164;-73
2020/12/06 05:50:31;;;;;;;23.17;17.20;;;6.10;99.90;;;;;;5031456;28;20221;-73
2020/12/06 05:52:57;;;;;;;21.03;15.00;;;6.10;99.90;;;;;;5031226;28;20409;-73
2020/12/06 05:55:24;;;;;;;29.27;17.27;;;6.20;99.90;;;;;;5031254;28;20489;-73
2020/12/06 05:57:50;;;;;;;20.40;15.13;;;6.20;99.90;;;;;;5031109;28;20398;-73
2020/12/06 06:00:15;;;;;;;21.03;16.67;;;6.20;99.90;;;;;;5031366;28;20921;-73
2020/12/06 06:02:45;;;;;;;26.50;15.87;;;6.30;99.90;;;;;;5032411;28;20418;-74
2020/12/06 06:05:16;;;;;;;23.30;17.03;;;6.30;99.90;;;;;;5031470;28;20168;-74
2020/12/06 06:07:42;;;;;;;23.50;16.20;;;6.30;99.90;;;;;;5033860;28;20899;-73
2020/12/06 06:10:14;;;;;;;25.83;17.80;;;6.30;99.90;;;;;;5034922;28;20461;-73
2020/12/06 06:12:44;;;;;;;24.20;15.80;;;6.30;99.90;;;;;;5034946;28;20910;-73
2020/12/06 06:15:09;;;;;;;28.30;16.87;;;6.30;99.90;;;;;;5034812;28;20552;-74
2020/12/06 06:17:35;;;;;;;24.93;15.97;;;6.30;99.90;;;;;;5034789;28;21033;-73
2020/12/06 06:20:00;;;;;;;24.70;16.97;;;6.30;99.90;;;;;;5034526;28;20223;-74
2020/12/06 06:22:38;;;;;;;29.97;16.90;;;6.30;99.90;;;;;;5034684;28;20172;-73
2020/12/06 06:25:05;;;;;;;21.57;17.23;;;6.30;99.90;;;;;;5034883;28;20167;-72
2020/12/06 06:27:36;;;;;;;23.67;16.10;;;6.30;99.90;;;;;;5034708;28;20402;-74
2020/12/06 06:30:09;;;;;;;24.10;17.17;;;6.30;99.90;;;;;;5033474;28;20979;-73
2020/12/06 06:32:37;;;;;;;24.70;16.57;;;6.30;99.90;;;;;;5034366;28;20468;-73
2020/12/06 06:35:04;;;;;;;24.87;16.80;;;6.30;99.90;;;;;;5034398;28;20449;-73
2020/12/06 06:37:34;;;;;;;22.00;15.03;;;6.30;99.90;;;;;;5035380;28;20398;-74
2020/12/06 06:40:02;;;;;;;20.10;16.30;;;6.30;99.90;;;;;;5034616;28;20478;-73
2020/12/06 06:42:28;;;;;;;22.50;15.87;;;6.30;99.90;;;;;;5034415;28;20410;-74
2020/12/06 06:45:09;;;;;;;24.13;15.27;;;6.30;99.90;;;;;;5034766;28;20814;-74
2020/12/06 06:47:45;;;;;;;22.20;15.87;;;6.30;99.90;;;;;;5033587;28;20422;-74
2020/12/06 06:50:11;;;;;;;25.33;16.47;;;6.30;99.90;;;;;;5034328;28;20401;-72
2020/12/06 06:52:40;;;;;;;25.37;15.70;;;6.30;99.90;;;;;;5034275;28;20414;-74
2020/12/06 06:55:06;;;;;;;24.00;15.30;;;6.30;99.90;;;;;;5034222;28;20454;-74
2020/12/06 06:57:32;;;;;;;19.93;15.10;;;6.30;99.90;;;;;;5033933;28;20398;-74
2020/12/06 06:59:59;;;;;;;21.40;15.90;;;6.30;99.90;;;;;;5034292;28;20472;-73
2020/12/06 07:02:39;;;;;;;22.73;15.43;;;6.40;99.90;;;;;;5034076;28;20402;-74
2020/12/06 07:05:06;;;;;;;21.47;16.03;;;6.40;99.90;;;;;;5034540;28;20840;-74
2020/12/06 07:07:43;;;;;;;23.83;16.53;;;6.40;99.90;;;;;;5034520;28;20769;-75
2020/12/06 07:10:10;;;;;;;22.10;15.70;;;6.40;99.90;;;;;;5033819;28;20471;-75
2020/12/06 07:12:39;;;;;;;18.37;14.03;;;6.50;99.90;;;;;;5034601;28;20410;-74
2020/12/06 07:15:06;;;;;;;22.37;16.20;;;6.50;99.90;;;;;;5034961;28;20446;-75
2020/12/06 07:17:32;;;;;;;17.87;14.77;;;6.50;99.90;;;;;;5034126;28;20534;-75
2020/12/06 07:19:58;;;;;;;19.13;14.47;;;6.50;99.90;;;;;;5033734;28;20887;-74
2020/12/06 07:22:23;;;;;;;24.20;15.23;;;6.60;99.90;;;;;;5034179;28;20175;-74
2020/12/06 07:24:50;;;;;;;19.73;15.77;;;6.60;99.90;;;;;;5033518;28;20773;-73
2020/12/06 07:27:15;;;;;;;22.43;15.50;;;6.60;99.90;;;;;;5032191;28;20182;-75
2020/12/06 07:29:41;;;;;;;20.33;15.00;;;6.70;99.90;;;;;;5033544;28;20434;-74
2020/12/06 07:32:08;;;;;;;19.67;14.87;;;6.70;99.90;;;;;;5033816;28;20536;-74
2020/12/06 07:34:34;;;;;;;25.23;14.47;;;6.80;99.90;;;;;;5033415;28;20214;-74
2020/12/06 07:37:00;;;;;;;25.67;15.17;;;6.80;99.90;;;;;;5033477;28;20403;-74
2020/12/06 07:39:26;;;;;;;19.00;14.93;;;6.90;99.90;;;;;;5033459;28;20196;-74
2020/12/06 07:41:51;;;;;;;16.23;13.93;;;6.90;99.90;;;;;;5033515;28;20744;-75
2020/12/06 07:44:17;;;;;;;24.20;16.73;;;7.00;99.90;;;;;;5033436;28;20261;-75
2020/12/06 07:46:43;;;;;;;18.77;14.60;;;7.00;99.90;;;;;;5033075;28;20193;-75
2020/12/06 07:49:09;;;;;;;17.20;14.60;;;7.10;99.90;;;;;;5033073;28;20221;-75
2020/12/06 07:51:35;;;;;;;14.07;12.20;;;7.10;99.90;;;;;;5032992;28;20230;-75
2020/12/06 07:54:02;;;;;;;19.20;14.93;;;7.10;99.90;;;;;;5031607;28;20978;-74
2020/12/06 07:56:29;;;;;;;19.73;13.20;;;7.20;99.90;;;;;;5033016;28;20176;-75
2020/12/06 07:59:06;;;;;;;18.37;13.10;;;7.30;99.90;;;;;;5032964;28;20508;-75
2020/12/06 08:01:32;;;;;;;18.60;12.47;;;7.30;99.90;;;;;;5033075;28;20452;-74
2020/12/06 08:03:59;;;;;;;15.27;11.97;;;7.30;99.90;;;;;;5032810;28;20446;-74
2020/12/06 08:06:27;;;;;;;19.40;13.27;;;7.40;99.90;;;;;;5032619;28;20541;-74
2020/12/06 08:08:57;;;;;;;15.00;12.83;;;7.50;99.90;;;;;;5032591;28;20462;-74
2020/12/06 08:11:29;;;;;;;17.20;12.20;;;7.50;99.90;;;;;;5033056;28;20490;-74
2020/12/06 08:13:56;;;;;;;20.07;12.10;;;7.50;99.90;;;;;;5032415;28;20457;-74
2020/12/06 08:16:22;;;;;;;16.83;13.37;;;7.70;99.90;;;;;;5032282;28;20441;-74
2020/12/06 08:18:57;;;;;;;16.07;12.50;;;7.80;99.90;;;;;;5032468;28;20789;-74
2020/12/06 08:21:23;;;;;;;15.77;12.23;;;7.80;99.90;;;;;;5031400;28;20179;-74
2020/12/06 08:23:48;;;;;;;17.90;11.60;;;7.80;99.90;;;;;;5032488;28;20410;-74
2020/12/06 08:26:14;;;;;;;18.00;12.40;;;7.90;99.90;;;;;;5032421;28;20688;-74
2020/12/06 08:28:39;;;;;;;17.17;12.37;;;7.90;99.90;;;;;;5032446;28;20560;-74
2020/12/06 08:31:22;;;;;;;17.73;12.27;;;7.90;99.90;;;;;;5031777;28;20199;-74
2020/12/06 08:33:47;;;;;;;13.60;11.70;;;8.00;99.90;;;;;;5032345;28;20487;-75
2020/12/06 08:36:23;;;;;;;21.03;13.03;;;8.00;99.90;;;;;;5032128;28;20399;-74
2020/12/06 08:38:48;;;;;;;18.77;12.70;;;8.10;99.90;;;;;;5032363;28;20213;-74
2020/12/06 08:41:14;;;;;;;16.23;11.20;;;8.10;99.90;;;;;;5032115;28;20407;-74
2020/12/06 08:43:42;;;;;;;14.40;12.23;;;8.20;99.90;;;;;;5032295;28;20218;-74
2020/12/06 08:46:09;;;;;;;14.37;12.53;;;8.10;99.90;;;;;;5032151;28;20199;-74
2020/12/06 08:48:35;;;;;;;17.10;11.17;;;8.10;99.90;;;;;;5032093;28;20426;-73
2020/12/06 08:51:00;;;;;;;14.77;11.13;;;8.10;99.90;;;;;;5032190;28;20416;-74
2020/12/06 08:53:26;;;;;;;14.97;12.30;;;8.20;99.90;;;;;;5032054;28;20199;-76
2020/12/06 08:55:51;;;;;;;16.60;11.70;;;8.20;99.90;;;;;;5030838;28;20258;-74
2020/12/06 08:58:30;;;;;;;15.67;11.20;;;8.20;99.90;;;;;;5031804;28;20191;-76
2020/12/06 09:01:04;;;;;;;15.90;11.83;;;8.30;99.90;;;;;;5032026;28;20164;-74
2020/12/06 09:03:29;;;;;;;18.27;12.10;;;8.30;99.90;;;;;;5031968;28;20469;-74
2020/12/06 09:05:55;;;;;;;14.53;10.67;;;8.30;99.90;;;;;;5031991;28;20402;-74
2020/12/06 09:08:20;;;;;;;13.93;11.53;;;8.30;99.90;;;;;;5031503;28;20199;-74
2020/12/06 09:10:46;;;;;;;17.20;12.57;;;8.40;99.90;;;;;;5032051;28;20640;-73
2020/12/06 09:13:11;;;;;;;18.17;11.60;;;8.40;99.90;;;;;;5031708;28;20581;-74
2020/12/06 09:15:36;;;;;;;15.70;12.77;;;8.50;99.90;;;;;;5031863;28;20168;-74
2020/12/06 09:18:02;;;;;;;15.63;11.80;;;8.40;99.90;;;;;;5030603;28;20159;-74
2020/12/06 09:20:27;;;;;;;14.63;10.40;;;8.50;99.90;;;;;;5031750;28;20255;-73
2020/12/06 09:22:53;;;;;;;16.07;11.30;;;8.50;99.90;;;;;;5031805;28;20172;-74
2020/12/06 09:25:19;;;;;;;15.60;11.40;;;8.50;99.90;;;;;;5031748;28;20182;-74
2020/12/06 09:27:44;;;;;;;14.63;11.93;;;8.60;99.90;;;;;;5031468;28;20183;-74
2020/12/06 09:30:10;;;;;;;16.70;11.70;;;8.60;99.90;;;;;;5031831;28;20406;-74
2020/12/06 09:32:35;;;;;;;15.30;11.93;;;8.70;99.90;;;;;;5031817;28;20207;-75
2020/12/06 09:35:01;;;;;;;15.20;10.93;;;8.70;99.90;;;;;;5031805;28;20686;-74
2020/12/06 09:37:26;;;;;;;16.10;10.80;;;8.80;99.90;;;;;;5031663;28;20249;-74
2020/12/06 09:39:51;;;;;;;16.33;12.03;;;8.80;99.90;;;;;;5031562;28;20188;-75
2020/12/06 09:42:17;;;;;;;13.63;10.67;;;8.90;99.90;;;;;;5033715;28;20168;-74
2020/12/06 09:44:42;;;;;;;16.40;10.00;;;8.90;99.90;;;;;;5035719;28;20695;-74
2020/12/06 09:47:08;;;;;;;13.60;9.87;;;8.90;99.90;;;;;;5035753;28;20198;-75
2020/12/06 09:49:33;;;;;;;12.70;10.67;;;8.90;99.90;;;;;;5036180;28;20206;-75
2020/12/06 09:51:59;;;;;;;14.90;11.20;;;9.00;99.90;;;;;;5036185;28;20168;-74
2020/12/06 09:54:24;;;;;;;14.37;10.47;;;9.00;99.90;;;;;;5035798;28;20603;-75
2020/12/06 09:56:50;;;;;;;13.50;10.17;;;9.10;99.90;;;;;;5035360;28;20180;-74
2020/12/06 09:59:15;;;;;;;15.57;10.17;;;9.10;99.90;;;;;;5035182;28;20194;-74
2020/12/06 10:01:41;;;;;;;13.10;10.10;;;9.10;99.90;;;;;;5035230;28;20536;-74
2020/12/06 10:04:06;;;;;;;14.30;11.27;;;9.10;99.90;;;;;;5035068;28;20262;-74
2020/12/06 10:06:32;;;;;;;15.03;11.00;;;9.10;99.90;;;;;;5035153;28;20202;-74
2020/12/06 10:08:57;;;;;;;13.37;10.30;;;9.20;99.90;;;;;;5034883;28;20616;-75
2020/12/06 10:11:23;;;;;;;14.40;9.63;;;9.20;99.90;;;;;;5035046;28;20572;-74
2020/12/06 10:13:49;;;;;;;11.57;10.33;;;9.30;99.90;;;;;;5034955;28;20205;-75
2020/12/06 10:16:15;;;;;;;18.13;12.53;;;9.40;99.90;;;;;;5034856;28;20931;-74
2020/12/06 10:18:40;;;;;;;13.37;9.50;;;9.50;99.90;;;;;;5033602;28;20192;-74
2020/12/06 10:21:11;;;;;;;14.10;10.93;;;9.50;99.90;;;;;;5034931;28;20495;-75
2020/12/06 10:23:37;;;;;;;12.53;10.67;;;9.60;99.90;;;;;;5034735;28;20234;-74
2020/12/06 10:26:05;;;;;;;11.47;8.90;;;9.60;99.90;;;;;;5030231;28;20934;-74
2020/12/06 10:28:31;;;;;;;11.30;9.23;;;9.70;99.90;;;;;;5026789;28;20926;-74
2020/12/06 10:30:56;;;;;;;11.40;9.10;;;9.70;99.90;;;;;;5034408;28;20421;-74
2020/12/06 10:33:22;;;;;;;11.73;10.07;;;9.80;99.90;;;;;;5034370;28;20456;-74
2020/12/06 10:35:48;;;;;;;14.63;10.17;;;9.80;99.90;;;;;;5031107;28;20624;-73
2020/12/06 10:38:13;;;;;;;13.03;10.17;;;9.80;99.90;;;;;;5028159;28;20195;-74
2020/12/06 10:40:39;;;;;;;11.57;9.57;;;9.90;99.90;;;;;;5022927;28;20406;-74
2020/12/06 10:43:05;;;;;;;13.23;9.80;;;9.90;99.90;;;;;;5023433;28;20169;-74
2020/12/06 10:45:30;;;;;;;11.03;9.93;;;10.00;99.90;;;;;;5024245;28;20644;-74
2020/12/06 10:47:56;;;;;;;13.27;9.60;;;10.00;99.90;;;;;;5024261;28;20248;-74
2020/12/06 10:50:21;;;;;;;13.00;10.00;;;10.10;99.90;;;;;;5022834;28;20919;-74
2020/12/06 10:52:47;;;;;;;13.40;11.70;;;10.10;99.90;;;;;;5024019;28;20528;-74
2020/12/06 10:55:12;;;;;;;13.30;10.10;;;10.20;99.90;;;;;;5024848;28;20210;-73
2020/12/06 10:57:38;;;;;;;18.83;10.50;;;10.20;99.90;;;;;;5024293;28;20179;-73
2020/12/06 11:00:05;;;;;;;11.90;10.57;;;10.20;99.90;;;;;;5025148;28;20227;-74
2020/12/06 11:02:31;;;;;;;16.00;10.13;;;10.30;99.90;;;;;;5026088;28;20183;-73
2020/12/06 11:04:57;;;;;;;11.03;9.10;;;10.40;99.90;;;;;;5024480;28;20418;-73
2020/12/06 11:07:23;;;;;;;14.13;10.10;;;10.40;99.90;;;;;;5021820;28;20913;-73
2020/12/06 11:09:48;;;;;;;13.13;10.03;;;10.40;99.90;;;;;;5023130;28;20451;-73
2020/12/06 11:12:14;;;;;;;13.77;10.20;;;10.50;99.90;;;;;;5022928;28;20199;-74
2020/12/06 11:14:39;;;;;;;14.17;9.67;;;10.50;99.90;;;;;;5024251;28;20197;-73
2020/12/06 11:17:05;;;;;;;11.67;9.13;;;10.60;99.90;;;;;;5023150;28;20223;-73
2020/12/06 11:19:30;;;;;;;15.33;9.67;;;10.70;99.90;;;;;;5023392;28;20215;-72
2020/12/06 11:21:56;;;;;;;13.33;9.40;;;10.70;99.90;;;;;;5024173;28;20172;-73
2020/12/06 11:24:21;;;;;;;12.83;9.57;;;10.70;99.90;;;;;;5022141;28;20207;-72
2020/12/06 11:26:47;;;;;;;13.47;12.07;;;10.80;99.90;;;;;;5023558;28;20171;-72
2020/12/06 11:29:12;;;;;;;10.27;8.53;;;10.80;99.90;;;;;;5023751;28;20626;-72
2020/12/06 11:31:38;;;;;;;11.37;9.73;;;10.80;99.90;;;;;;5022303;28;20173;-73
2020/12/06 11:34:03;;;;;;;15.00;11.20;;;10.90;99.90;;;;;;5026965;28;20194;-72
2020/12/06 11:36:29;;;;;;;11.37;8.97;;;10.90;99.90;;;;;;5031995;28;20536;-71
2020/12/06 11:38:56;;;;;;;11.20;9.07;;;11.00;99.90;;;;;;5030065;28;20198;-71
2020/12/06 11:41:23;;;;;;;11.80;8.77;;;10.90;99.90;;;;;;5033233;28;20222;-71
2020/12/06 11:43:48;;;;;;;13.87;10.33;;;10.90;99.90;;;;;;5033133;28;20410;-72
2020/12/06 11:46:14;;;;;;;13.87;10.07;;;10.90;99.90;;;;;;5033095;28;20406;-71
2020/12/06 11:48:39;;;;;;;15.53;9.70;;;10.90;99.90;;;;;;5033205;28;20200;-72
2020/12/06 11:51:05;;;;;;;13.77;10.07;;;11.00;99.90;;;;;;5033072;28;20233;-72
2020/12/06 11:53:30;;;;;;;9.83;8.63;;;11.00;99.90;;;;;;5032841;28;20285;-71
2020/12/06 11:55:56;;;;;;;13.07;10.40;;;11.00;99.90;;;;;;5033153;28;20159;-72
2020/12/06 11:58:21;;;;;;;10.90;9.03;;;11.00;99.90;;;;;;5033114;28;20188;-72
2020/12/06 12:00:47;;;;;;;13.33;9.00;;;11.20;99.90;;;;;;5033195;28;20625;-73
2020/12/06 12:03:12;;;;;;;12.90;9.10;;;11.30;99.90;;;;;;5032909;28;20165;-71
2020/12/06 12:05:38;;;;;;;11.20;9.23;;;11.30;99.90;;;;;;5031935;28;20282;-71
2020/12/06 12:08:03;;;;;;;12.40;9.20;;;11.30;99.90;;;;;;5032645;28;20191;-72
2020/12/06 12:10:28;;;;;;;11.60;9.53;;;11.40;99.90;;;;;;5032969;28;20250;-72
2020/12/06 12:12:54;;;;;;;10.33;8.17;;;11.40;99.90;;;;;;5030873;28;20175;-72
2020/12/06 12:15:19;;;;;;;11.80;8.80;;;11.40;99.90;;;;;;5023207;28;20668;-72
2020/12/06 12:17:45;;;;;;;12.73;9.43;;;11.50;99.90;;;;;;5024692;28;20530;-73
2020/12/06 12:20:11;;;;;;;11.30;9.67;;;11.40;99.90;;;;;;5019585;28;20173;-74
2020/12/06 12:22:36;;;;;;;11.50;8.73;;;11.50;99.90;;;;;;5023713;28;20186;-73
2020/12/06 12:25:03;;;;;;;13.70;9.00;;;11.50;99.90;;;;;;5029238;28;20180;-73
2020/12/06 12:27:28;;;;;;;11.37;9.40;;;11.50;99.90;;;;;;5021605;28;20574;-73
2020/12/06 12:29:54;;;;;;;12.03;9.47;;;11.50;99.90;;;;;;5022900;28;20434;-73
2020/12/06 12:32:19;;;;;;;12.30;9.03;;;11.40;99.90;;;;;;5021202;28;20182;-73